Time;durP1;ratioP1;P1;durP2;ratioP2;P2;SDS_P1;SDS_P2;PMS_P1;PMS_P2;Temp;Humidity;BMP_temperature;BMP_pressure;BME280_temperature;BME280_humidity;BME280_pressure;Samples;Min_cycle;Max_cycle;Signal;HPM_P1;HPM_P2
2021/09/05 00:01:10;;;;;;;;;;;12.40;92.20;;;;;;5011375;28;19918;-64
2021/09/05 00:03:36;;;;;;;;;;;12.40;92.20;;;;;;5011259;28;19922;-63
2021/09/05 00:06:01;;;;;;;;;;;12.40;92.10;;;;;;5011648;28;20404;-63
2021/09/05 00:08:27;;;;;;;;;;;12.40;92.30;;;;;;5011128;28;19918;-64
2021/09/05 00:10:52;;;;;;;;;;;12.40;92.30;;;;;;5011997;28;19925;-63
2021/09/05 00:13:18;;;;;;;;;;;12.30;92.40;;;;;;5011446;28;20172;-63
2021/09/05 00:15:43;;;;;;;;;;;12.30;92.20;;;;;;4993521;28;20400;-63
2021/09/05 00:18:09;;;;;;;;;;;12.20;92.30;;;;;;5011515;28;20005;-63
2021/09/05 00:20:34;;;;;;;;;;;12.20;92.40;;;;;;5011622;28;20424;-63
2021/09/05 00:23:01;;;;;;;;;;;12.20;92.40;;;;;;5026560;28;19925;-63
2021/09/05 00:25:32;;;;;;;;;;;12.20;92.30;;;;;;5011351;28;19937;-63
2021/09/05 00:27:58;;;;;;;;;;;12.20;92.50;;;;;;5011172;28;19925;-63
2021/09/05 00:30:24;;;;;;;;;;;12.10;92.60;;;;;;5010699;28;20000;-63
2021/09/05 00:32:49;;;;;;;;;;;12.10;92.60;;;;;;5010237;28;19917;-63
2021/09/05 00:35:15;;;;;;;;;;;12.10;92.40;;;;;;5011364;28;19971;-62
2021/09/05 00:37:40;;;;;;;;;;;12.20;92.70;;;;;;5010886;28;19921;-62
2021/09/05 00:40:07;;;;;;;;;;;12.10;92.60;;;;;;4993919;28;19924;-63
2021/09/05 00:42:32;;;;;;;;;;;12.10;92.60;;;;;;5011097;28;19921;-63
2021/09/05 00:44:58;;;;;;;;;;;12.00;92.40;;;;;;5025895;28;19918;-63
2021/09/05 00:47:24;;;;;;;;;;;12.00;92.60;;;;;;5011096;28;19923;-63
2021/09/05 00:49:49;;;;;;;;;;;12.00;92.70;;;;;;5015051;28;19924;-63
2021/09/05 00:52:15;;;;;;;;;;;12.00;92.70;;;;;;5015153;28;19949;-63
2021/09/05 00:54:42;;;;;;;;;;;12.00;92.60;;;;;;5015195;28;19924;-63
2021/09/05 00:57:15;;;;;;;;;;;11.90;92.80;;;;;;5014163;28;20297;-63
2021/09/05 00:59:48;;;;;;;;;;;11.90;92.80;;;;;;5015206;28;19925;-63
2021/09/05 01:02:14;;;;;;;;;;;11.90;92.80;;;;;;5014325;28;19922;-63
2021/09/05 01:04:40;;;;;;;;;;;11.90;92.70;;;;;;4997366;28;19917;-63
2021/09/05 01:07:08;;;;;;;;;;;11.80;92.80;;;;;;5014216;28;19917;-63
2021/09/05 01:09:34;;;;;;;;;;;11.80;92.90;;;;;;5015019;28;20023;-63
2021/09/05 01:12:00;;;;;;;;;;;11.80;92.80;;;;;;5015093;28;19965;-62
2021/09/05 01:14:27;;;;;;;;;;;11.80;92.70;;;;;;4996582;28;19917;-63
2021/09/05 01:16:53;;;;;;;;;;;11.80;92.90;;;;;;5014183;28;19928;-63
2021/09/05 01:19:38;;;;;;;;;;;11.70;92.90;;;;;;5014308;28;19924;-63
2021/09/05 01:22:21;;;;;;;;;;;11.70;92.90;;;;;;5014712;28;19924;-63
2021/09/05 01:24:56;;;;;;;;;;;11.70;92.80;;;;;;5014056;28;19952;-63
2021/09/05 01:27:40;;;;;;;;;;;11.70;93.00;;;;;;5014036;28;19952;-63
2021/09/05 01:30:24;;;;;;;;;;;11.60;93.00;;;;;;5014589;28;19988;-63
2021/09/05 01:33:18;;;;;;;;;;;11.60;93.00;;;;;;5013681;28;19924;-63
2021/09/05 01:36:03;;;;;;;;;;;11.50;92.80;;;;;;5027331;28;20456;-63
2021/09/05 01:38:58;;;;;;;;;;;11.60;93.10;;;;;;5011875;28;20389;-63
2021/09/05 01:42:01;;;;;;;;;;;11.50;93.10;;;;;;5013882;28;20439;-63
2021/09/05 01:45:01;;;;;;;;;;;11.50;93.00;;;;;;5012458;28;19944;-63
2021/09/05 01:47:46;;;;;;;;;;;11.50;93.20;;;;;;5013806;28;20443;-63
2021/09/05 01:50:31;;;;;;;;;;;11.50;93.10;;;;;;5013696;28;19924;-63
2021/09/05 01:53:16;;;;;;;;;;;11.40;93.10;;;;;;4999098;28;19917;-63
2021/09/05 01:56:00;;;;;;;;;;;11.40;93.00;;;;;;5013992;28;19929;-63
2021/09/05 01:58:55;;;;;;;;;;;11.40;93.20;;;;;;5011827;28;19922;-63
2021/09/05 02:01:39;;;;;;;;;;;11.30;93.20;;;;;;5013417;28;20297;-64
2021/09/05 02:04:29;;;;;;;;;;;11.30;93.10;;;;;;5012187;28;20008;-63
2021/09/05 02:07:16;;;;;;;;;;;11.30;93.20;;;;;;5012049;28;19918;-63
2021/09/05 02:10:14;;;;;;;;;;;11.20;93.20;;;;;;5013407;28;19917;-63
2021/09/05 02:13:03;;;;;;;;;;;11.20;93.30;;;;;;5012072;28;20400;-63
2021/09/05 02:15:53;;;;;;;;;;;11.10;93.10;;;;;;5012312;28;19917;-63
2021/09/05 02:18:36;;;;;;;;;;;11.10;93.30;;;;;;5011900;28;19924;-64
2021/09/05 02:21:33;;;;;;;;;;;11.10;93.20;;;;;;5013011;28;19925;-63
2021/09/05 02:24:19;;;;;;;;;;;11.10;93.30;;;;;;4992030;28;19924;-64
2021/09/05 02:27:01;;;;;;;;;;;11.10;93.40;;;;;;5011992;28;19917;-64
2021/09/05 02:29:45;;;;;;;;;;;11.00;93.30;;;;;;5013109;28;19925;-63
2021/09/05 02:32:31;;;;;;;;;;;11.00;93.30;;;;;;5005535;28;20408;-63
2021/09/05 02:35:14;;;;;;;;;;;11.00;93.20;;;;;;5014458;28;20384;-63
2021/09/05 02:37:58;;;;;;;;;;;10.90;93.40;;;;;;5012618;28;20017;-63
2021/09/05 02:40:44;;;;;;;;;;;10.90;93.40;;;;;;5010868;28;19921;-63
2021/09/05 02:43:30;;;;;;;;;;;10.90;93.40;;;;;;5023157;28;20048;-63
2021/09/05 02:46:14;;;;;;;;;;;10.80;93.20;;;;;;4987007;28;19963;-63
2021/09/05 02:49:02;;;;;;;;;;;10.80;93.40;;;;;;4990416;28;19928;-63
2021/09/05 02:52:05;;;;;;;;;;;10.80;93.40;;;;;;4978574;28;19972;-63
2021/09/05 02:54:51;;;;;;;;;;;10.70;93.30;;;;;;4986614;28;19923;-64
2021/09/05 02:57:48;;;;;;;;;;;10.70;93.40;;;;;;4972721;28;21493;-64
2021/09/05 03:00:48;;;;;;;;;;;10.70;93.40;;;;;;4974941;28;19918;-63
2021/09/05 03:03:49;;;;;;;;;;;10.60;93.50;;;;;;4979207;28;19925;-63
2021/09/05 03:06:41;;;;;;;;;;;10.60;93.40;;;;;;4991582;28;19929;-64
2021/09/05 03:09:30;;;;;;;;;;;10.60;93.40;;;;;;4989395;28;19969;-63
2021/09/05 03:12:33;;;;;;;;;;;10.50;93.40;;;;;;4992379;28;19928;-64
2021/09/05 03:15:17;;;;;;;;;;;10.50;93.30;;;;;;4992601;28;19941;-64
2021/09/05 03:18:01;;;;;;;;;;;10.50;93.50;;;;;;4991594;28;19922;-63
2021/09/05 03:20:45;;;;;;;;;;;10.50;93.50;;;;;;4991670;28;19933;-63
2021/09/05 03:23:29;;;;;;;;;;;10.50;93.60;;;;;;4992617;28;19964;-63
2021/09/05 03:26:20;;;;;;;;;;;10.40;93.40;;;;;;4984594;28;20007;-63
2021/09/05 03:29:04;;;;;;;;;;;10.40;93.60;;;;;;4992536;28;20452;-63
2021/09/05 03:31:46;;;;;;;;;;;10.30;93.60;;;;;;4991561;28;20420;-64
2021/09/05 03:34:29;;;;;;;;;;;10.30;93.40;;;;;;5000027;28;19925;-64
2021/09/05 03:37:15;;;;;;;;;;;10.30;93.60;;;;;;4980666;28;19929;-64
2021/09/05 03:40:09;;;;;;;;;;;10.30;93.60;;;;;;5010939;28;19917;-63
2021/09/05 03:42:54;;;;;;;;;;;10.20;93.60;;;;;;5011979;28;19924;-64
2021/09/05 03:45:49;;;;;;;;;;;10.20;93.40;;;;;;5002601;28;19967;-64
2021/09/05 03:48:32;;;;;;;;;;;10.10;93.60;;;;;;5026607;28;19917;-63
2021/09/05 03:51:08;;;;;;;;;;;10.10;93.70;;;;;;4994637;28;19929;-63
2021/09/05 03:56:20;;;;;;;;;;;10.10;93.50;;;;;;5245845;23;19926;-64
2021/09/05 03:58:49;;;;;;;;;;;10.10;93.60;;;;;;4973198;28;19922;-62
2021/09/05 04:01:16;;;;;;;;;;;10.00;93.60;;;;;;4974891;28;19918;-63
2021/09/05 04:03:48;;;;;;;;;;;10.00;93.70;;;;;;4991238;28;19940;-63
2021/09/05 04:06:14;;;;;;;;;;;10.10;93.60;;;;;;4974118;28;20362;-63
2021/09/05 04:08:45;;;;;;;;;;;10.00;93.70;;;;;;4975528;28;19985;-61
2021/09/05 04:11:11;;;;;;;;;;;10.00;93.70;;;;;;4973992;28;20437;-61
2021/09/05 04:13:36;;;;;;;;;;;10.00;93.70;;;;;;4992307;28;19918;-62
2021/09/05 04:16:02;;;;;;;;;;;10.00;93.50;;;;;;4974556;28;19928;-62
2021/09/05 04:18:28;;;;;;;;;;;9.90;93.80;;;;;;4974328;28;19917;-62
2021/09/05 04:20:53;;;;;;;;;;;9.90;93.80;;;;;;4992781;28;19917;-61
2021/09/05 04:23:19;;;;;;;;;;;9.90;93.80;;;;;;4979053;28;19948;-61
2021/09/05 04:25:44;;;;;;;;;;;9.90;93.60;;;;;;4995414;28;20380;-61
2021/09/05 04:28:10;;;;;;;;;;;9.90;93.80;;;;;;4978765;28;19969;-61
2021/09/05 04:30:35;;;;;;;;;;;9.90;93.90;;;;;;4995670;28;19964;-62
2021/09/05 04:33:01;;;;;;;;;;;9.90;93.90;;;;;;4996098;28;19926;-61
2021/09/05 04:35:26;;;;;;;;;;;9.90;93.90;;;;;;4978312;28;19918;-62
2021/09/05 04:37:52;;;;;;;;;;;9.90;93.90;;;;;;4995466;28;19929;-62
2021/09/05 04:40:17;;;;;;;;;;;9.90;93.90;;;;;;4995890;28;19925;-62
2021/09/05 04:42:43;;;;;;;;;;;9.90;94.00;;;;;;4978413;28;19941;-62
2021/09/05 04:45:09;;;;;;;;;;;9.90;93.80;;;;;;4995119;28;19921;-62
2021/09/05 04:47:34;;;;;;;;;;;9.90;94.00;;;;;;4978347;28;19918;-63
2021/09/05 04:50:00;;;;;;;;;;;9.90;94.00;;;;;;4994734;28;19918;-62
2021/09/05 04:52:25;;;;;;;;;;;9.90;94.00;;;;;;4994813;28;19922;-62
2021/09/05 04:54:51;;;;;;;;;;;9.90;93.90;;;;;;4977820;28;19957;-62
2021/09/05 04:57:17;;;;;;;;;;;9.90;94.20;;;;;;4994216;28;19964;-62
2021/09/05 04:59:42;;;;;;;;;;;9.90;94.20;;;;;;4995647;28;19952;-62
2021/09/05 05:02:08;;;;;;;;;;;9.90;94.20;;;;;;4995741;28;19984;-62
2021/09/05 05:04:33;;;;;;;;;;;10.00;94.10;;;;;;4995054;28;20012;-62
2021/09/05 05:06:59;;;;;;;;;;;9.90;94.30;;;;;;4978065;28;19984;-63
2021/09/05 05:09:24;;;;;;;;;;;10.00;94.40;;;;;;4995526;28;20401;-62
2021/09/05 05:11:50;;;;;;;;;;;10.10;94.50;;;;;;4995023;28;19922;-62
2021/09/05 05:14:15;;;;;;;;;;;10.10;94.50;;;;;;4977933;28;20029;-62
2021/09/05 05:16:41;;;;;;;;;;;10.20;94.30;;;;;;4994525;28;19921;-62
2021/09/05 05:19:07;;;;;;;;;;;10.30;94.50;;;;;;4995308;28;19925;-63
2021/09/05 05:21:34;;;;;;;;;;;10.30;94.60;;;;;;4977767;28;19925;-62
2021/09/05 05:24:00;;;;;;;;;;;10.40;94.70;;;;;;4994775;28;19918;-63
2021/09/05 05:26:26;;;;;;;;;;;10.40;94.50;;;;;;4994838;28;20509;-62
2021/09/05 05:28:52;;;;;;;;;;;10.50;94.70;;;;;;4995068;28;20529;-63
2021/09/05 05:31:18;;;;;;;;;;;10.50;94.70;;;;;;4994693;28;19986;-63
2021/09/05 05:33:43;;;;;;;;;;;10.60;94.80;;;;;;4994308;28;20297;-62
2021/09/05 05:36:09;;;;;;;;;;;10.70;94.60;;;;;;4994640;28;19925;-62
2021/09/05 05:38:36;;;;;;;;;;;10.70;94.80;;;;;;4994538;28;19922;-62
2021/09/05 05:41:01;;;;;;;;;;;10.80;94.80;;;;;;4994968;28;19918;-62
2021/09/05 05:43:27;;;;;;;;;;;10.80;94.90;;;;;;4994384;28;19972;-62
2021/09/05 05:45:52;;;;;;;;;;;11.00;94.80;;;;;;4994503;28;19940;-62
2021/09/05 05:48:18;;;;;;;;;;;11.00;94.90;;;;;;4994819;28;19917;-62
2021/09/05 05:50:45;;;;;;;;;;;11.10;95.00;;;;;;4994106;28;19917;-63
2021/09/05 05:53:10;;;;;;;;;;;11.20;95.00;;;;;;4994803;28;20427;-62
2021/09/05 05:55:36;;;;;;;;;;;11.30;94.90;;;;;;4994279;28;19996;-63
2021/09/05 05:58:02;;;;;;;;;;;11.30;95.10;;;;;;4993937;28;20012;-62
2021/09/05 06:00:27;;;;;;;;;;;11.40;95.10;;;;;;4977291;28;20005;-62
2021/09/05 06:02:53;;;;;;;;;;;11.50;95.20;;;;;;4994108;28;19918;-62
2021/09/05 06:05:19;;;;;;;;;;;11.70;94.90;;;;;;4994149;28;19917;-62
2021/09/05 06:07:45;;;;;;;;;;;11.70;95.10;;;;;;4994561;28;19965;-62
2021/09/05 06:10:11;;;;;;;;;;;11.80;95.10;;;;;;4994006;28;19921;-62
2021/09/05 06:12:37;;;;;;;;;;;11.90;95.30;;;;;;4994293;28;19925;-62
2021/09/05 06:15:02;;;;;;;;;;;12.40;96.30;;;;;;4976736;28;20335;-62
2021/09/05 06:17:28;;;;;;;;;;;12.60;96.80;;;;;;4978854;28;20131;-62
2021/09/05 06:19:54;;;;;;;;;;;13.30;97.40;;;;;;4994150;28;19949;-62
2021/09/05 06:22:19;;;;;;;;;;;13.70;96.80;;;;;;4993674;28;19918;-62
2021/09/05 06:24:45;;;;;;;;;;;13.90;96.10;;;;;;4976198;28;20299;-62
2021/09/05 06:27:10;;;;;;;;;;;14.70;97.50;;;;;;4994018;28;19918;-63
2021/09/05 06:29:36;;;;;;;;;;;16.10;98.30;;;;;;4992547;28;20008;-63
2021/09/05 06:32:02;;;;;;;;;;;17.70;98.10;;;;;;4996559;28;20013;-62
2021/09/05 06:34:27;;;;;;;;;;;19.10;96.40;;;;;;4993580;28;20000;-62
2021/09/05 06:36:53;;;;;;;;;;;20.30;95.00;;;;;;4975834;28;20017;-62
2021/09/05 06:39:18;;;;;;;;;;;21.30;94.50;;;;;;4993792;28;20012;-63
2021/09/05 06:41:44;;;;;;;;;;;22.30;92.90;;;;;;4993284;28;20293;-63
2021/09/05 06:44:09;;;;;;;;;;;23.30;92.00;;;;;;4992985;28;19918;-64
2021/09/05 06:46:35;;;;;;;;;;;24.20;89.50;;;;;;4997796;28;19921;-63
2021/09/05 06:49:00;;;;;;;;;;;24.70;86.90;;;;;;5006534;28;19917;-62
2021/09/05 06:51:26;;;;;;;;;;;25.30;86.00;;;;;;5013022;28;20297;-63
2021/09/05 06:53:51;;;;;;;;;;;26.00;83.90;;;;;;4995594;28;19917;-62
2021/09/05 06:56:17;;;;;;;;;;;26.70;81.80;;;;;;5011959;28;19922;-63
2021/09/05 06:58:43;;;;;;;;;;;27.30;80.60;;;;;;5013022;28;19924;-62
2021/09/05 07:01:08;;;;;;;;;;;27.90;78.30;;;;;;5012695;28;20313;-63
2021/09/05 07:03:34;;;;;;;;;;;28.50;76.70;;;;;;4994687;28;19959;-62
2021/09/05 07:05:59;;;;;;;;;;;29.10;74.60;;;;;;5012268;28;20382;-62
2021/09/05 07:08:25;;;;;;;;;;;29.70;71.80;;;;;;5012560;28;19917;-63
2021/09/05 07:10:50;;;;;;;;;;;30.30;68.70;;;;;;4994478;28;19972;-63
2021/09/05 07:13:16;;;;;;;;;;;30.70;64.40;;;;;;5012467;28;19925;-63
2021/09/05 07:15:41;;;;;;;;;;;31.20;63.00;;;;;;5011694;28;19921;-63
2021/09/05 07:18:07;;;;;;;;;;;31.50;59.80;;;;;;5012303;28;19925;-63
2021/09/05 07:20:32;;;;;;;;;;;31.80;56.00;;;;;;5012152;28;19932;-63
2021/09/05 07:22:58;;;;;;;;;;;31.80;54.90;;;;;;4992515;28;20378;-63
2021/09/05 07:25:26;;;;;;;;;;;32.30;53.80;;;;;;4992497;28;20594;-63
2021/09/05 07:27:52;;;;;;;;;;;32.90;51.70;;;;;;4992799;28;20412;-62
2021/09/05 07:30:17;;;;;;;;;;;33.40;49.40;;;;;;4990733;28;19967;-63
2021/09/05 07:32:43;;;;;;;;;;;33.60;46.50;;;;;;4996021;28;19918;-63
2021/09/05 07:35:09;;;;;;;;;;;33.60;45.40;;;;;;4984548;28;20404;-63
2021/09/05 07:37:35;;;;;;;;;;;33.60;44.40;;;;;;4994920;28;20023;-63
2021/09/05 07:40:00;;;;;;;;;;;33.90;43.70;;;;;;4992158;28;20077;-63
2021/09/05 07:42:26;;;;;;;;;;;34.50;43.40;;;;;;4991567;28;20384;-62
2021/09/05 07:44:51;;;;;;;;;;;35.10;42.20;;;;;;4991150;28;19925;-64
2021/09/05 07:47:17;;;;;;;;;;;35.60;40.90;;;;;;4988775;28;19918;-63
2021/09/05 07:49:42;;;;;;;;;;;35.80;39.10;;;;;;4988547;28;19918;-62
2021/09/05 07:52:08;;;;;;;;;;;36.10;39.30;;;;;;4988648;28;19936;-63
2021/09/05 07:54:34;;;;;;;;;;;36.50;38.60;;;;;;4988552;28;19918;-63
2021/09/05 07:56:59;;;;;;;;;;;36.90;37.60;;;;;;4989509;28;20583;-63
2021/09/05 07:59:25;;;;;;;;;;;37.20;36.70;;;;;;4966420;28;19992;-63
2021/09/05 08:01:50;;;;;;;;;;;37.60;35.90;;;;;;4990445;28;19965;-63
2021/09/05 08:04:16;;;;;;;;;;;37.70;34.60;;;;;;4968839;28;20008;-64
2021/09/05 08:06:41;;;;;;;;;;;37.70;34.50;;;;;;4991306;28;19918;-64
2021/09/05 08:09:07;;;;;;;;;;;37.80;33.30;;;;;;4984396;28;20336;-63
2021/09/05 08:11:32;;;;;;;;;;;37.80;33.70;;;;;;5000644;28;20368;-64
2021/09/05 08:13:58;;;;;;;;;;;38.20;33.20;;;;;;5001799;28;20382;-64
2021/09/05 08:16:23;;;;;;;;;;;38.50;32.80;;;;;;4983626;28;19960;-63
2021/09/05 08:18:49;;;;;;;;;;;39.00;32.50;;;;;;4984061;28;20004;-63
2021/09/05 08:21:14;;;;;;;;;;;39.40;31.70;;;;;;5000455;28;20048;-64
2021/09/05 08:23:40;;;;;;;;;;;39.90;31.30;;;;;;5001696;28;19921;-63
2021/09/05 08:26:06;;;;;;;;;;;40.10;30.80;;;;;;5000749;28;19996;-63
2021/09/05 08:28:32;;;;;;;;;;;40.40;30.00;;;;;;4977346;28;19918;-63
2021/09/05 08:30:58;;;;;;;;;;;40.40;29.80;;;;;;4973726;28;19929;-63
2021/09/05 08:33:24;;;;;;;;;;;40.60;29.50;;;;;;4998344;28;19991;-63
2021/09/05 08:35:50;;;;;;;;;;;40.60;29.10;;;;;;4997958;28;19972;-63
2021/09/05 08:38:16;;;;;;;;;;;40.60;28.80;;;;;;5000297;28;19925;-63
2021/09/05 08:40:43;;;;;;;;;;;40.60;28.80;;;;;;5000451;28;19918;-63
2021/09/05 08:43:10;;;;;;;;;;;40.70;28.30;;;;;;4995098;28;19946;-64
2021/09/05 08:45:36;;;;;;;;;;;40.90;28.40;;;;;;4991000;28;19968;-65
2021/09/05 08:48:02;;;;;;;;;;;41.10;27.90;;;;;;4991240;28;20390;-64
2021/09/05 08:50:28;;;;;;;;;;;41.30;27.70;;;;;;4991724;28;19918;-64
2021/09/05 08:52:54;;;;;;;;;;;41.40;27.40;;;;;;4991636;28;19918;-64
2021/09/05 08:55:20;;;;;;;;;;;41.60;27.30;;;;;;4990581;28;19972;-64
2021/09/05 08:57:45;;;;;;;;;;;41.80;27.60;;;;;;4989482;28;20017;-64
2021/09/05 09:00:11;;;;;;;;;;;42.20;27.20;;;;;;4989675;28;19925;-64
2021/09/05 09:03:03;;;;;;;;;;;42.40;27.10;;;;;;4990971;28;19917;-64
2021/09/05 09:05:33;;;;;;;;;;;42.50;26.70;;;;;;4985941;28;19921;-64
2021/09/05 09:08:00;;;;;;;;;;;42.60;26.70;;;;;;4992288;28;20005;-64
2021/09/05 09:10:25;;;;;;;;;;;42.80;26.40;;;;;;4993743;28;19913;-64
2021/09/05 09:12:51;;;;;;;;;;;42.90;26.20;;;;;;4975937;28;19996;-65
2021/09/05 09:15:19;;;;;;;;;;;43.10;26.30;;;;;;4993576;28;19961;-65
2021/09/05 09:17:48;;;;;;;;;;;43.50;26.20;;;;;;4976361;28;19921;-65
2021/09/05 09:20:28;;;;;;;;;;;43.60;25.80;;;;;;4994225;28;19917;-64
2021/09/05 09:23:13;;;;;;;;;;;43.80;25.90;;;;;;4993781;28;19957;-63
2021/09/05 09:25:49;;;;;;;;;;;44.40;25.80;;;;;;4972933;28;19953;-64
2021/09/05 09:28:26;;;;;;;;;;;44.70;25.10;;;;;;4992722;28;19921;-64
2021/09/05 09:30:51;;;;;;;;;;;44.70;25.30;;;;;;5001662;28;20266;-64
2021/09/05 09:33:21;;;;;;;;;;;45.10;25.40;;;;;;4985855;28;19980;-64
2021/09/05 09:35:51;;;;;;;;;;;45.40;25.10;;;;;;4986447;28;20008;-63
2021/09/05 09:38:17;;;;;;;;;;;45.60;24.70;;;;;;5002474;28;19983;-64
2021/09/05 09:40:43;;;;;;;;;;;45.50;24.60;;;;;;5002832;28;19949;-66
2021/09/05 09:43:15;;;;;;;;;;;45.70;24.70;;;;;;5002028;28;19929;-65
2021/09/05 09:45:41;;;;;;;;;;;45.90;24.50;;;;;;4999868;28;19925;-66
2021/09/05 09:48:08;;;;;;;;;;;46.00;24.30;;;;;;5002407;28;19941;-64
2021/09/05 09:50:40;;;;;;;;;;;45.90;24.10;;;;;;4993987;28;19925;-64
2021/09/05 09:53:06;;;;;;;;;;;45.90;24.30;;;;;;4993333;28;19945;-65
2021/09/05 09:55:32;;;;;;;;;;;46.30;24.40;;;;;;4992132;28;19922;-65
2021/09/05 09:57:57;;;;;;;;;;;46.60;24.30;;;;;;4992597;28;20308;-65
2021/09/05 10:00:23;;;;;;;;;;;46.30;23.80;;;;;;4993171;28;19918;-64
2021/09/05 10:02:48;;;;;;;;;;;45.90;23.60;;;;;;4992916;28;19969;-66
2021/09/05 10:05:16;;;;;;;;;;;45.90;24.20;;;;;;4991810;28;21302;-65
2021/09/05 10:07:43;;;;;;;;;;;46.10;23.90;;;;;;4993119;28;19968;-65
2021/09/05 10:10:10;;;;;;;;;;;45.70;23.80;;;;;;4975398;28;19988;-64
2021/09/05 10:12:36;;;;;;;;;;;45.70;24.20;;;;;;4976447;28;19972;-64
2021/09/05 10:15:03;;;;;;;;;;;45.60;24.00;;;;;;4993825;28;20351;-66
2021/09/05 10:17:29;;;;;;;;;;;45.40;24.10;;;;;;4993577;28;19926;-67
2021/09/05 10:19:55;;;;;;;;;;;45.50;24.20;;;;;;4993742;28;19917;-66
2021/09/05 10:22:23;;;;;;;;;;;45.00;23.90;;;;;;4993968;28;19913;-67
2021/09/05 10:24:49;;;;;;;;;;;44.50;24.10;;;;;;4992949;28;19926;-66
2021/09/05 10:27:15;;;;;;;;;;;43.70;24.30;;;;;;5002127;28;19917;-66
2021/09/05 10:30:01;;;;;;;;;;;42.20;24.20;;;;;;5007136;28;20305;-66
2021/09/05 10:32:41;;;;;;;;;;;40.20;24.80;;;;;;4994274;28;19922;-66
2021/09/05 10:35:25;;;;;;;;;;;39.70;26.10;;;;;;4992557;28;19925;-66
2021/09/05 10:38:21;;;;;;;;;;;40.50;26.50;;;;;;4993127;28;20450;-66
2021/09/05 10:40:46;;;;;;;;;;;41.10;26.10;;;;;;4993275;28;19968;-66
2021/09/05 10:43:12;;;;;;;;;;;40.90;25.80;;;;;;4993460;28;19921;-66
2021/09/05 10:45:39;;;;;;;;;;;40.00;25.70;;;;;;4993026;28;20279;-65
2021/09/05 10:48:23;;;;;;;;;;;38.30;25.70;;;;;;4993093;28;19925;-65
2021/09/05 10:50:49;;;;;;;;;;;36.20;26.20;;;;;;4993467;28;20341;-65
2021/09/05 10:53:23;;;;;;;;;;;34.30;26.90;;;;;;4992277;28;19918;-65
2021/09/05 10:56:04;;;;;;;;;;;32.20;27.70;;;;;;4992675;28;19987;-65
2021/09/05 10:58:36;;;;;;;;;;;31.60;28.40;;;;;;4992609;28;20203;-65
2021/09/05 11:01:03;;;;;;;;;;;31.10;29.80;;;;;;4992434;28;19917;-65
2021/09/05 11:03:29;;;;;;;;;;;31.10;30.70;;;;;;4992464;28;19949;-65
2021/09/05 11:06:13;;;;;;;;;;;31.60;30.00;;;;;;4992435;28;19918;-65
2021/09/05 11:08:40;;;;;;;;;;;31.70;31.00;;;;;;4975113;28;20382;-65
2021/09/05 11:11:06;;;;;;;;;;;31.60;30.80;;;;;;4992716;28;19949;-64
2021/09/05 11:13:49;;;;;;;;;;;31.20;30.80;;;;;;4992666;28;19925;-65
2021/09/05 11:16:16;;;;;;;;;;;30.30;31.30;;;;;;4974393;28;19925;-64
2021/09/05 11:18:43;;;;;;;;;;;29.90;32.10;;;;;;4992905;28;20436;-64
2021/09/05 11:21:21;;;;;;;;;;;29.50;33.70;;;;;;4991853;28;19922;-65
2021/09/05 11:23:47;;;;;;;;;;;29.70;33.60;;;;;;4975492;28;20377;-64
2021/09/05 11:26:15;;;;;;;;;;;30.40;34.10;;;;;;4991929;28;19918;-65
2021/09/05 11:28:43;;;;;;;;;;;30.50;34.00;;;;;;4992738;28;20392;-65
2021/09/05 11:31:09;;;;;;;;;;;30.00;33.30;;;;;;4991669;28;20057;-65
2021/09/05 11:33:36;;;;;;;;;;;29.40;34.30;;;;;;4992638;28;19936;-65
2021/09/05 11:36:02;;;;;;;;;;;30.40;35.90;;;;;;4992040;28;20370;-65
2021/09/05 11:38:38;;;;;;;;;;;31.60;36.60;;;;;;4991881;28;19918;-65
2021/09/05 11:41:04;;;;;;;;;;;33.80;35.40;;;;;;4991551;28;20056;-65
2021/09/05 11:43:35;;;;;;;;;;;35.20;33.70;;;;;;4991963;28;20048;-66
2021/09/05 11:46:14;;;;;;;;;;;35.50;32.00;;;;;;4991571;28;19918;-66
2021/09/05 11:48:57;;;;;;;;;;;35.20;31.50;;;;;;4961047;28;19992;-65
2021/09/05 11:51:25;;;;;;;;;;;33.50;30.10;;;;;;4973036;28;20426;-65
2021/09/05 11:54:02;;;;;;;;;;;31.20;30.70;;;;;;4972636;28;19919;-65
2021/09/05 11:56:29;;;;;;;;;;;28.90;31.40;;;;;;4972144;28;20379;-65
2021/09/05 11:59:04;;;;;;;;;;;27.80;32.90;;;;;;4972527;28;20061;-65
2021/09/05 12:01:31;;;;;;;;;;;26.80;34.60;;;;;;4972907;28;19925;-65
2021/09/05 12:03:57;;;;;;;;;;;26.40;35.70;;;;;;4972876;28;20378;-64
2021/09/05 12:06:23;;;;;;;;;;;26.10;35.60;;;;;;4971933;28;19918;-65
2021/09/05 12:08:49;;;;;;;;;;;26.10;36.30;;;;;;4971438;28;20477;-65
2021/09/05 12:11:15;;;;;;;;;;;25.90;36.30;;;;;;4972094;28;20009;-65
2021/09/05 12:13:55;;;;;;;;;;;25.60;36.60;;;;;;4972711;28;20027;-65
2021/09/05 12:16:21;;;;;;;;;;;25.10;37.10;;;;;;4972197;28;19922;-65
2021/09/05 12:19:04;;;;;;;;;;;25.00;37.80;;;;;;4972494;28;19918;-65
2021/09/05 12:21:31;;;;;;;;;;;24.70;38.30;;;;;;4972248;28;19924;-64
2021/09/05 12:23:57;;;;;;;;;;;24.40;39.10;;;;;;4972643;28;19940;-64
2021/09/05 12:26:23;;;;;;;;;;;24.30;39.90;;;;;;4955067;28;19918;-65
2021/09/05 12:29:00;;;;;;;;;;;24.30;40.60;;;;;;4972024;28;19922;-64
2021/09/05 12:31:46;;;;;;;;;;;24.30;41.00;;;;;;4971084;28;20375;-64
2021/09/05 12:34:37;;;;;;;;;;;24.40;41.50;;;;;;4971874;28;19919;-65
2021/09/05 12:37:10;;;;;;;;;;;24.60;42.00;;;;;;4972463;28;19922;-65
2021/09/05 12:39:36;;;;;;;;;;;25.20;42.90;;;;;;4972215;28;19929;-65
2021/09/05 12:42:06;;;;;;;;;;;26.10;42.80;;;;;;4972390;28;19941;-65
2021/09/05 12:44:50;;;;;;;;;;;26.70;40.60;;;;;;4974739;28;19922;-65
2021/09/05 12:47:23;;;;;;;;;;;26.70;41.00;;;;;;4975163;28;19918;-65
2021/09/05 12:49:49;;;;;;;;;;;26.40;40.40;;;;;;4976042;28;20061;-65
2021/09/05 12:52:24;;;;;;;;;;;25.70;39.60;;;;;;4976268;28;19918;-65
2021/09/05 12:54:51;;;;;;;;;;;24.60;39.40;;;;;;4975395;28;20231;-65
2021/09/05 12:57:17;;;;;;;;;;;24.40;39.90;;;;;;4975893;28;19922;-65
2021/09/05 12:59:42;;;;;;;;;;;24.00;40.50;;;;;;4958285;28;20009;-63
2021/09/05 13:02:08;;;;;;;;;;;23.70;41.00;;;;;;4975930;28;19922;-63
2021/09/05 13:04:33;;;;;;;;;;;23.50;41.50;;;;;;4975626;28;20342;-64
2021/09/05 13:07:00;;;;;;;;;;;23.30;41.90;;;;;;4958351;28;19934;-64
2021/09/05 13:09:26;;;;;;;;;;;23.30;42.20;;;;;;4975768;28;19922;-64
2021/09/05 13:11:51;;;;;;;;;;;23.30;42.60;;;;;;4975796;28;19928;-64
2021/09/05 13:14:18;;;;;;;;;;;23.30;42.60;;;;;;4975108;28;19924;-64
2021/09/05 13:16:45;;;;;;;;;;;23.20;43.00;;;;;;4975501;28;20343;-64
2021/09/05 13:19:11;;;;;;;;;;;23.30;44.30;;;;;;4974516;28;20001;-64
2021/09/05 13:21:37;;;;;;;;;;;23.70;44.80;;;;;;4975235;28;19989;-65
2021/09/05 13:24:03;;;;;;;;;;;24.20;44.90;;;;;;4974417;28;20382;-66
2021/09/05 13:26:29;;;;;;;;;;;24.70;44.70;;;;;;4974870;28;19926;-65
2021/09/05 13:28:55;;;;;;;;;;;25.00;43.70;;;;;;4975737;28;19990;-65
2021/09/05 13:31:24;;;;;;;;;;;25.10;43.70;;;;;;4975464;28;20187;-64
2021/09/05 13:33:55;;;;;;;;;;;24.90;43.40;;;;;;4975327;28;19925;-64
2021/09/05 13:36:20;;;;;;;;;;;24.60;43.60;;;;;;4974899;28;19918;-65
2021/09/05 13:38:47;;;;;;;;;;;24.40;44.20;;;;;;4974859;28;20018;-64
2021/09/05 13:41:14;;;;;;;;;;;24.30;45.10;;;;;;4974054;28;20397;-64
2021/09/05 13:43:40;;;;;;;;;;;24.40;45.80;;;;;;4975201;28;19925;-64
2021/09/05 13:46:07;;;;;;;;;;;24.60;45.70;;;;;;4957142;28;20355;-65
2021/09/05 13:48:35;;;;;;;;;;;24.70;46.00;;;;;;4975112;28;19925;-65
2021/09/05 13:51:01;;;;;;;;;;;24.80;45.60;;;;;;4974721;28;19929;-64
2021/09/05 13:53:27;;;;;;;;;;;24.70;45.90;;;;;;4973487;28;20295;-64
2021/09/05 13:55:52;;;;;;;;;;;24.60;45.70;;;;;;4974394;28;20359;-65
2021/09/05 13:58:18;;;;;;;;;;;24.30;45.80;;;;;;4974760;28;19945;-65
2021/09/05 14:00:44;;;;;;;;;;;24.10;46.60;;;;;;4974890;28;19954;-64
2021/09/05 14:03:11;;;;;;;;;;;23.90;46.90;;;;;;4974962;28;19925;-65
2021/09/05 14:05:37;;;;;;;;;;;23.70;47.20;;;;;;4972873;28;19918;-64
2021/09/05 14:08:03;;;;;;;;;;;23.50;47.50;;;;;;4974803;28;20441;-65
2021/09/05 14:10:29;;;;;;;;;;;23.40;48.00;;;;;;4974695;28;19922;-64
2021/09/05 14:12:56;;;;;;;;;;;23.20;48.40;;;;;;4974461;28;19918;-65
2021/09/05 14:15:22;;;;;;;;;;;23.00;48.60;;;;;;4973042;28;20008;-65
2021/09/05 14:17:48;;;;;;;;;;;23.00;49.00;;;;;;4972715;28;19922;-64
2021/09/05 14:20:15;;;;;;;;;;;22.90;49.60;;;;;;4974450;28;19918;-64
2021/09/05 14:22:42;;;;;;;;;;;23.00;50.10;;;;;;4974408;28;20013;-65
2021/09/05 14:25:10;;;;;;;;;;;23.10;50.20;;;;;;4973741;28;19919;-64
2021/09/05 14:27:51;;;;;;;;;;;23.20;49.90;;;;;;4974571;28;19918;-65
2021/09/05 14:32:58;;;;;;;;;;;22.90;50.20;;;;;;4974286;28;19957;-66
2021/09/05 14:35:35;;;;;;;;;;;22.70;50.50;;;;;;4973858;28;19925;-64
2021/09/05 14:49:06;;;;;;;;;;;22.50;51.90;;;;;;4973705;28;19926;-63
2021/09/05 14:56:43;;;;;;;;;;;21.90;52.40;;;;;;4973462;28;19961;-64
2021/09/05 14:59:28;;;;;;;;;;;21.80;53.30;;;;;;4973450;28;20295;-64
2021/09/05 15:01:59;;;;;;;;;;;21.70;53.90;;;;;;4972636;28;19961;-64